sensor_id;sensor_type;location;lat;lon;timestamp;P1;durP1;ratioP1;P2;durP2;ratioP2
42702;SDS011;28341;52.064;4.920;2023-04-03T00:01:09;4.82;;;2.08;;
42702;SDS011;28341;52.064;4.920;2023-04-03T00:03:14;4.28;;;2.00;;
42702;SDS011;28341;52.064;4.920;2023-04-03T00:05:19;4.13;;;2.15;;
42702;SDS011;28341;52.064;4.920;2023-04-03T00:07:23;3.47;;;1.80;;
42702;SDS011;28341;52.064;4.920;2023-04-03T00:09:28;3.78;;;2.22;;
42702;SDS011;28341;52.064;4.920;2023-04-03T00:11:32;5.82;;;2.10;;
42702;SDS011;28341;52.064;4.920;2023-04-03T00:13:37;3.72;;;1.90;;
42702;SDS011;28341;52.064;4.920;2023-04-03T00:15:42;4.43;;;2.13;;
42702;SDS011;28341;52.064;4.920;2023-04-03T00:17:49;4.05;;;2.40;;
42702;SDS011;28341;52.064;4.920;2023-04-03T00:19:54;4.65;;;2.42;;
42702;SDS011;28341;52.064;4.920;2023-04-03T00:21:58;5.13;;;2.13;;
42702;SDS011;28341;52.064;4.920;2023-04-03T00:24:03;4.63;;;2.40;;
42702;SDS011;28341;52.064;4.920;2023-04-03T00:26:08;3.53;;;2.20;;
42702;SDS011;28341;52.064;4.920;2023-04-03T00:28:14;3.58;;;2.08;;
42702;SDS011;28341;52.064;4.920;2023-04-03T00:30:19;5.35;;;2.10;;
42702;SDS011;28341;52.064;4.920;2023-04-03T00:32:25;9.00;;;2.42;;
42702;SDS011;28341;52.064;4.920;2023-04-03T00:34:32;7.00;;;2.00;;
42702;SDS011;28341;52.064;4.920;2023-04-03T00:36:37;4.65;;;2.28;;
42702;SDS011;28341;52.064;4.920;2023-04-03T00:38:41;4.20;;;2.10;;
42702;SDS011;28341;52.064;4.920;2023-04-03T00:40:47;3.10;;;2.38;;
42702;SDS011;28341;52.064;4.920;2023-04-03T00:42:55;7.40;;;2.13;;
42702;SDS011;28341;52.064;4.920;2023-04-03T00:47:33;4.50;;;2.13;;
42702;SDS011;28341;52.064;4.920;2023-04-03T00:49:41;3.58;;;2.50;;
42702;SDS011;28341;52.064;4.920;2023-04-03T00:51:46;5.38;;;2.40;;
42702;SDS011;28341;52.064;4.920;2023-04-03T00:53:53;4.75;;;2.40;;
42702;SDS011;28341;52.064;4.920;2023-04-03T00:55:59;7.13;;;2.33;;
42702;SDS011;28341;52.064;4.920;2023-04-03T00:58:04;7.10;;;2.47;;
42702;SDS011;28341;52.064;4.920;2023-04-03T01:00:11;4.43;;;2.28;;
42702;SDS011;28341;52.064;4.920;2023-04-03T01:02:19;7.43;;;2.22;;
42702;SDS011;28341;52.064;4.920;2023-04-03T01:04:26;3.92;;;2.33;;
42702;SDS011;28341;52.064;4.920;2023-04-03T01:06:35;4.85;;;2.22;;
42702;SDS011;28341;52.064;4.920;2023-04-03T01:08:42;3.95;;;2.10;;
42702;SDS011;28341;52.064;4.920;2023-04-03T01:10:47;6.80;;;2.70;;
42702;SDS011;28341;52.064;4.920;2023-04-03T01:12:53;3.90;;;2.00;;
42702;SDS011;28341;52.064;4.920;2023-04-03T01:14:58;4.00;;;2.30;;
42702;SDS011;28341;52.064;4.920;2023-04-03T01:17:03;6.38;;;2.67;;
42702;SDS011;28341;52.064;4.920;2023-04-03T01:19:28;11.98;;;3.25;;
42702;SDS011;28341;52.064;4.920;2023-04-03T01:21:45;5.45;;;2.33;;
42702;SDS011;28341;52.064;4.920;2023-04-03T01:24:11;4.30;;;2.55;;
42702;SDS011;28341;52.064;4.920;2023-04-03T01:26:36;4.32;;;2.10;;
42702;SDS011;28341;52.064;4.920;2023-04-03T01:28:41;4.20;;;2.35;;
42702;SDS011;28341;52.064;4.920;2023-04-03T01:30:47;6.00;;;2.20;;
42702;SDS011;28341;52.064;4.920;2023-04-03T01:33:03;5.80;;;2.53;;
42702;SDS011;28341;52.064;4.920;2023-04-03T01:35:08;4.43;;;2.33;;
42702;SDS011;28341;52.064;4.920;2023-04-03T01:37:13;6.25;;;2.30;;
42702;SDS011;28341;52.064;4.920;2023-04-03T01:39:18;5.88;;;2.30;;
42702;SDS011;28341;52.064;4.920;2023-04-03T01:41:24;5.05;;;2.40;;
42702;SDS011;28341;52.064;4.920;2023-04-03T01:43:35;6.05;;;2.50;;
42702;SDS011;28341;52.064;4.920;2023-04-03T01:45:39;5.30;;;3.35;;
42702;SDS011;28341;52.064;4.920;2023-04-03T01:47:44;6.63;;;2.75;;
42702;SDS011;28341;52.064;4.920;2023-04-03T01:49:51;5.20;;;2.88;;
42702;SDS011;28341;52.064;4.920;2023-04-03T01:51:56;7.85;;;2.60;;
42702;SDS011;28341;52.064;4.920;2023-04-03T01:54:00;4.88;;;2.95;;
42702;SDS011;28341;52.064;4.920;2023-04-03T01:56:08;5.35;;;2.67;;
42702;SDS011;28341;52.064;4.920;2023-04-03T01:58:13;5.82;;;2.60;;
42702;SDS011;28341;52.064;4.920;2023-04-03T02:00:17;3.80;;;2.40;;
42702;SDS011;28341;52.064;4.920;2023-04-03T02:02:22;6.55;;;2.53;;
42702;SDS011;28341;52.064;4.920;2023-04-03T02:04:27;4.15;;;2.78;;
42702;SDS011;28341;52.064;4.920;2023-04-03T02:06:34;6.20;;;2.58;;
42702;SDS011;28341;52.064;4.920;2023-04-03T02:08:39;4.43;;;2.42;;
42702;SDS011;28341;52.064;4.920;2023-04-03T02:10:43;4.13;;;2.50;;
42702;SDS011;28341;52.064;4.920;2023-04-03T02:12:51;7.45;;;2.95;;
42702;SDS011;28341;52.064;4.920;2023-04-03T02:14:55;6.82;;;2.97;;
42702;SDS011;28341;52.064;4.920;2023-04-03T02:17:01;5.80;;;2.80;;
42702;SDS011;28341;52.064;4.920;2023-04-03T02:19:08;8.23;;;4.03;;
42702;SDS011;28341;52.064;4.920;2023-04-03T02:21:14;8.25;;;2.75;;
42702;SDS011;28341;52.064;4.920;2023-04-03T02:23:21;6.25;;;2.67;;
42702;SDS011;28341;52.064;4.920;2023-04-03T02:25:26;7.47;;;2.88;;
42702;SDS011;28341;52.064;4.920;2023-04-03T02:27:30;7.57;;;3.03;;
42702;SDS011;28341;52.064;4.920;2023-04-03T02:29:35;6.47;;;2.70;;
42702;SDS011;28341;52.064;4.920;2023-04-03T02:31:40;7.85;;;2.92;;
42702;SDS011;28341;52.064;4.920;2023-04-03T02:33:45;11.35;;;3.10;;
42702;SDS011;28341;52.064;4.920;2023-04-03T02:35:52;5.53;;;2.88;;
42702;SDS011;28341;52.064;4.920;2023-04-03T02:37:57;7.63;;;2.75;;
42702;SDS011;28341;52.064;4.920;2023-04-03T02:40:05;7.03;;;2.92;;
42702;SDS011;28341;52.064;4.920;2023-04-03T02:42:12;6.80;;;3.35;;
42702;SDS011;28341;52.064;4.920;2023-04-03T02:44:16;6.75;;;2.90;;
42702;SDS011;28341;52.064;4.920;2023-04-03T02:46:21;5.80;;;2.70;;
42702;SDS011;28341;52.064;4.920;2023-04-03T02:48:26;6.95;;;2.67;;
42702;SDS011;28341;52.064;4.920;2023-04-03T02:50:30;6.82;;;3.17;;
42702;SDS011;28341;52.064;4.920;2023-04-03T02:52:35;4.75;;;2.85;;
42702;SDS011;28341;52.064;4.920;2023-04-03T02:54:40;6.80;;;3.00;;
42702;SDS011;28341;52.064;4.920;2023-04-03T02:56:48;6.30;;;2.95;;
42702;SDS011;28341;52.064;4.920;2023-04-03T02:58:53;4.03;;;2.95;;
42702;SDS011;28341;52.064;4.920;2023-04-03T03:00:58;8.23;;;3.03;;
42702;SDS011;28341;52.064;4.920;2023-04-03T03:03:03;5.70;;;3.03;;
42702;SDS011;28341;52.064;4.920;2023-04-03T03:05:08;9.18;;;2.90;;
42702;SDS011;28341;52.064;4.920;2023-04-03T03:07:13;4.93;;;2.65;;
42702;SDS011;28341;52.064;4.920;2023-04-03T03:09:17;5.28;;;3.35;;
42702;SDS011;28341;52.064;4.920;2023-04-03T03:11:22;7.28;;;3.35;;
42702;SDS011;28341;52.064;4.920;2023-04-03T03:13:30;5.45;;;3.38;;
42702;SDS011;28341;52.064;4.920;2023-04-03T03:15:34;8.77;;;3.72;;
42702;SDS011;28341;52.064;4.920;2023-04-03T03:17:39;5.30;;;3.00;;
42702;SDS011;28341;52.064;4.920;2023-04-03T03:19:44;4.40;;;2.60;;
42702;SDS011;28341;52.064;4.920;2023-04-03T03:21:48;8.98;;;3.22;;
42702;SDS011;28341;52.064;4.920;2023-04-03T03:23:53;9.57;;;3.22;;
42702;SDS011;28341;52.064;4.920;2023-04-03T03:25:58;8.75;;;3.40;;
42702;SDS011;28341;52.064;4.920;2023-04-03T03:28:08;6.75;;;3.15;;
42702;SDS011;28341;52.064;4.920;2023-04-03T03:30:15;7.43;;;3.40;;
42702;SDS011;28341;52.064;4.920;2023-04-03T03:32:20;7.30;;;3.20;;
42702;SDS011;28341;52.064;4.920;2023-04-03T03:34:25;9.05;;;3.40;;
42702;SDS011;28341;52.064;4.920;2023-04-03T03:36:29;7.68;;;3.35;;
42702;SDS011;28341;52.064;4.920;2023-04-03T03:38:35;5.35;;;3.60;;
42702;SDS011;28341;52.064;4.920;2023-04-03T03:40:40;5.88;;;3.42;;
42702;SDS011;28341;52.064;4.920;2023-04-03T03:42:44;8.93;;;3.38;;
42702;SDS011;28341;52.064;4.920;2023-04-03T03:44:49;7.45;;;3.30;;
42702;SDS011;28341;52.064;4.920;2023-04-03T03:46:56;11.55;;;4.28;;
42702;SDS011;28341;52.064;4.920;2023-04-03T03:49:02;8.27;;;3.90;;
42702;SDS011;28341;52.064;4.920;2023-04-03T03:51:07;5.10;;;3.17;;
42702;SDS011;28341;52.064;4.920;2023-04-03T03:53:13;5.88;;;3.67;;
42702;SDS011;28341;52.064;4.920;2023-04-03T03:55:18;7.82;;;3.47;;
42702;SDS011;28341;52.064;4.920;2023-04-03T03:57:26;5.50;;;3.30;;
42702;SDS011;28341;52.064;4.920;2023-04-03T03:59:32;6.68;;;3.40;;
42702;SDS011;28341;52.064;4.920;2023-04-03T04:01:36;6.85;;;3.60;;
42702;SDS011;28341;52.064;4.920;2023-04-03T04:03:44;7.57;;;3.60;;
42702;SDS011;28341;52.064;4.920;2023-04-03T04:05:53;10.32;;;4.32;;
42702;SDS011;28341;52.064;4.920;2023-04-03T04:07:58;8.35;;;3.67;;
42702;SDS011;28341;52.064;4.920;2023-04-03T04:10:03;6.57;;;3.38;;
42702;SDS011;28341;52.064;4.920;2023-04-03T04:12:10;7.03;;;3.60;;
42702;SDS011;28341;52.064;4.920;2023-04-03T04:14:14;6.95;;;3.72;;
42702;SDS011;28341;52.064;4.920;2023-04-03T04:16:21;9.75;;;3.90;;
42702;SDS011;28341;52.064;4.920;2023-04-03T04:18:26;6.53;;;3.40;;
42702;SDS011;28341;52.064;4.920;2023-04-03T04:20:33;4.93;;;3.33;;
42702;SDS011;28341;52.064;4.920;2023-04-03T04:22:38;8.07;;;3.28;;
42702;SDS011;28341;52.064;4.920;2023-04-03T04:24:43;4.72;;;2.90;;
42702;SDS011;28341;52.064;4.920;2023-04-03T04:26:48;4.68;;;3.13;;
42702;SDS011;28341;52.064;4.920;2023-04-03T04:28:54;6.70;;;3.70;;
42702;SDS011;28341;52.064;4.920;2023-04-03T04:30:59;10.20;;;3.97;;
42702;SDS011;28341;52.064;4.920;2023-04-03T04:33:03;10.60;;;3.65;;
42702;SDS011;28341;52.064;4.920;2023-04-03T04:35:09;8.13;;;3.25;;
42702;SDS011;28341;52.064;4.920;2023-04-03T04:37:18;6.85;;;4.10;;
42702;SDS011;28341;52.064;4.920;2023-04-03T04:39:23;8.50;;;3.35;;
42702;SDS011;28341;52.064;4.920;2023-04-03T04:41:31;7.45;;;3.42;;
42702;SDS011;28341;52.064;4.920;2023-04-03T04:43:37;8.38;;;3.72;;
42702;SDS011;28341;52.064;4.920;2023-04-03T04:45:44;5.88;;;3.47;;
42702;SDS011;28341;52.064;4.920;2023-04-03T04:47:51;5.90;;;3.30;;
42702;SDS011;28341;52.064;4.920;2023-04-03T04:49:59;7.22;;;3.97;;
42702;SDS011;28341;52.064;4.920;2023-04-03T04:52:06;5.90;;;3.40;;
42702;SDS011;28341;52.064;4.920;2023-04-03T04:54:14;6.53;;;3.55;;
42702;SDS011;28341;52.064;4.920;2023-04-03T04:56:21;7.75;;;3.50;;
42702;SDS011;28341;52.064;4.920;2023-04-03T04:58:27;7.43;;;3.40;;
42702;SDS011;28341;52.064;4.920;2023-04-03T05:00:33;6.50;;;3.58;;
42702;SDS011;28341;52.064;4.920;2023-04-03T05:02:37;8.77;;;3.72;;
42702;SDS011;28341;52.064;4.920;2023-04-03T05:04:42;7.20;;;3.10;;
42702;SDS011;28341;52.064;4.920;2023-04-03T05:06:53;9.23;;;3.45;;
42702;SDS011;28341;52.064;4.920;2023-04-03T05:09:01;6.13;;;3.70;;
42702;SDS011;28341;52.064;4.920;2023-04-03T05:11:10;8.80;;;3.90;;
42702;SDS011;28341;52.064;4.920;2023-04-03T05:13:15;8.45;;;3.55;;
42702;SDS011;28341;52.064;4.920;2023-04-03T05:15:20;8.93;;;3.95;;
42702;SDS011;28341;52.064;4.920;2023-04-03T05:17:24;10.55;;;3.83;;
42702;SDS011;28341;52.064;4.920;2023-04-03T05:19:31;14.77;;;3.88;;
42702;SDS011;28341;52.064;4.920;2023-04-03T05:21:36;8.27;;;3.13;;
42702;SDS011;28341;52.064;4.920;2023-04-03T05:23:45;7.20;;;3.75;;
42702;SDS011;28341;52.064;4.920;2023-04-03T05:25:50;8.75;;;3.38;;
42702;SDS011;28341;52.064;4.920;2023-04-03T05:27:58;7.37;;;3.63;;
42702;SDS011;28341;52.064;4.920;2023-04-03T05:30:03;10.80;;;3.80;;
42702;SDS011;28341;52.064;4.920;2023-04-03T05:32:11;9.07;;;3.80;;
42702;SDS011;28341;52.064;4.920;2023-04-03T05:34:15;16.83;;;4.00;;
42702;SDS011;28341;52.064;4.920;2023-04-03T05:36:22;9.30;;;4.15;;
42702;SDS011;28341;52.064;4.920;2023-04-03T05:38:31;11.13;;;3.75;;
42702;SDS011;28341;52.064;4.920;2023-04-03T05:40:36;8.02;;;3.80;;
42702;SDS011;28341;52.064;4.920;2023-04-03T05:42:41;14.25;;;4.22;;
42702;SDS011;28341;52.064;4.920;2023-04-03T05:44:50;7.47;;;3.80;;
42702;SDS011;28341;52.064;4.920;2023-04-03T05:46:54;8.68;;;4.20;;
42702;SDS011;28341;52.064;4.920;2023-04-03T05:48:59;11.70;;;3.90;;
42702;SDS011;28341;52.064;4.920;2023-04-03T05:51:06;11.55;;;4.18;;
42702;SDS011;28341;52.064;4.920;2023-04-03T05:53:18;12.27;;;4.18;;
42702;SDS011;28341;52.064;4.920;2023-04-03T05:55:27;13.18;;;3.67;;
42702;SDS011;28341;52.064;4.920;2023-04-03T05:57:32;10.50;;;4.07;;
42702;SDS011;28341;52.064;4.920;2023-04-03T05:59:38;9.98;;;4.32;;
42702;SDS011;28341;52.064;4.920;2023-04-03T06:01:45;12.20;;;3.97;;
42702;SDS011;28341;52.064;4.920;2023-04-03T06:03:50;10.30;;;3.80;;
42702;SDS011;28341;52.064;4.920;2023-04-03T06:05:56;52.65;;;29.20;;
42702;SDS011;28341;52.064;4.920;2023-04-03T06:08:00;23.98;;;13.27;;
42702;SDS011;28341;52.064;4.920;2023-04-03T06:10:07;10.18;;;4.18;;
42702;SDS011;28341;52.064;4.920;2023-04-03T06:12:13;10.75;;;3.95;;
42702;SDS011;28341;52.064;4.920;2023-04-03T06:14:18;9.13;;;4.18;;
42702;SDS011;28341;52.064;4.920;2023-04-03T06:16:22;10.82;;;3.58;;
42702;SDS011;28341;52.064;4.920;2023-04-03T06:18:29;9.48;;;4.05;;
42702;SDS011;28341;52.064;4.920;2023-04-03T06:20:34;9.02;;;4.25;;
42702;SDS011;28341;52.064;4.920;2023-04-03T06:22:39;10.90;;;4.78;;
42702;SDS011;28341;52.064;4.920;2023-04-03T06:24:45;13.90;;;4.68;;
42702;SDS011;28341;52.064;4.920;2023-04-03T06:26:50;11.82;;;4.05;;
42702;SDS011;28341;52.064;4.920;2023-04-03T06:28:55;10.32;;;3.95;;
42702;SDS011;28341;52.064;4.920;2023-04-03T06:31:00;15.15;;;7.00;;
42702;SDS011;28341;52.064;4.920;2023-04-03T06:33:04;10.38;;;4.03;;
42702;SDS011;28341;52.064;4.920;2023-04-03T06:35:12;11.23;;;4.07;;
42702;SDS011;28341;52.064;4.920;2023-04-03T06:37:16;10.15;;;3.75;;
42702;SDS011;28341;52.064;4.920;2023-04-03T06:39:23;9.13;;;4.38;;
42702;SDS011;28341;52.064;4.920;2023-04-03T06:41:28;13.15;;;3.85;;
42702;SDS011;28341;52.064;4.920;2023-04-03T06:43:33;10.38;;;3.30;;
42702;SDS011;28341;52.064;4.920;2023-04-03T06:45:37;11.20;;;3.13;;
42702;SDS011;28341;52.064;4.920;2023-04-03T06:47:42;11.32;;;4.07;;
42702;SDS011;28341;52.064;4.920;2023-04-03T06:49:46;7.85;;;3.80;;
42702;SDS011;28341;52.064;4.920;2023-04-03T06:51:54;10.68;;;4.00;;
42702;SDS011;28341;52.064;4.920;2023-04-03T06:53:59;10.43;;;3.38;;
42702;SDS011;28341;52.064;4.920;2023-04-03T06:56:04;8.52;;;3.30;;
42702;SDS011;28341;52.064;4.920;2023-04-03T06:58:10;13.27;;;3.45;;
42702;SDS011;28341;52.064;4.920;2023-04-03T07:00:15;10.93;;;3.60;;
42702;SDS011;28341;52.064;4.920;2023-04-03T07:02:21;11.55;;;3.35;;
42702;SDS011;28341;52.064;4.920;2023-04-03T07:04:26;7.47;;;3.33;;
42702;SDS011;28341;52.064;4.920;2023-04-03T07:06:31;10.55;;;3.28;;
42702;SDS011;28341;52.064;4.920;2023-04-03T07:08:38;10.18;;;3.50;;
42702;SDS011;28341;52.064;4.920;2023-04-03T07:10:43;7.85;;;3.13;;
42702;SDS011;28341;52.064;4.920;2023-04-03T07:12:47;6.63;;;3.13;;
42702;SDS011;28341;52.064;4.920;2023-04-03T07:14:52;9.10;;;3.33;;
42702;SDS011;28341;52.064;4.920;2023-04-03T07:16:57;9.13;;;3.05;;
42702;SDS011;28341;52.064;4.920;2023-04-03T07:19:01;12.00;;;3.17;;
42702;SDS011;28341;52.064;4.920;2023-04-03T07:21:08;26.17;;;15.10;;
42702;SDS011;28341;52.064;4.920;2023-04-03T07:23:13;7.10;;;2.88;;
42702;SDS011;28341;52.064;4.920;2023-04-03T07:25:20;10.93;;;3.00;;
42702;SDS011;28341;52.064;4.920;2023-04-03T07:27:25;6.85;;;2.97;;
42702;SDS011;28341;52.064;4.920;2023-04-03T07:29:30;10.10;;;2.67;;
42702;SDS011;28341;52.064;4.920;2023-04-03T07:31:34;8.60;;;2.80;;
42702;SDS011;28341;52.064;4.920;2023-04-03T07:33:38;7.70;;;2.78;;
42702;SDS011;28341;52.064;4.920;2023-04-03T07:35:44;6.85;;;2.78;;
42702;SDS011;28341;52.064;4.920;2023-04-03T07:37:48;9.48;;;2.58;;
42702;SDS011;28341;52.064;4.920;2023-04-03T07:39:53;7.50;;;3.05;;
42702;SDS011;28341;52.064;4.920;2023-04-03T07:42:01;8.75;;;2.83;;
42702;SDS011;28341;52.064;4.920;2023-04-03T07:44:06;8.35;;;3.00;;
42702;SDS011;28341;52.064;4.920;2023-04-03T07:46:10;11.25;;;3.08;;
42702;SDS011;28341;52.064;4.920;2023-04-03T07:48:15;8.55;;;2.45;;
42702;SDS011;28341;52.064;4.920;2023-04-03T07:50:19;10.88;;;2.90;;
42702;SDS011;28341;52.064;4.920;2023-04-03T07:52:25;9.65;;;3.38;;
42702;SDS011;28341;52.064;4.920;2023-04-03T07:54:29;9.88;;;2.47;;
42702;SDS011;28341;52.064;4.920;2023-04-03T07:56:33;8.80;;;2.80;;
42702;SDS011;28341;52.064;4.920;2023-04-03T07:58:40;9.60;;;2.70;;
42702;SDS011;28341;52.064;4.920;2023-04-03T08:00:44;11.18;;;2.83;;
42702;SDS011;28341;52.064;4.920;2023-04-03T08:02:48;5.97;;;2.47;;
42702;SDS011;28341;52.064;4.920;2023-04-03T08:04:53;13.95;;;2.22;;
42702;SDS011;28341;52.064;4.920;2023-04-03T08:06:57;8.15;;;2.38;;
42702;SDS011;28341;52.064;4.920;2023-04-03T08:09:01;8.68;;;2.65;;
42702;SDS011;28341;52.064;4.920;2023-04-03T08:11:06;7.22;;;2.30;;
42702;SDS011;28341;52.064;4.920;2023-04-03T08:13:10;6.85;;;2.40;;
42702;SDS011;28341;52.064;4.920;2023-04-03T08:15:17;8.80;;;2.33;;
42702;SDS011;28341;52.064;4.920;2023-04-03T08:17:21;11.13;;;2.97;;
42702;SDS011;28341;52.064;4.920;2023-04-03T08:19:26;7.35;;;2.22;;
42702;SDS011;28341;52.064;4.920;2023-04-03T08:21:31;4.28;;;1.90;;
42702;SDS011;28341;52.064;4.920;2023-04-03T08:23:35;7.40;;;2.40;;
42702;SDS011;28341;52.064;4.920;2023-04-03T08:25:41;9.70;;;2.50;;
42702;SDS011;28341;52.064;4.920;2023-04-03T08:27:46;6.05;;;2.10;;
42702;SDS011;28341;52.064;4.920;2023-04-03T08:29:51;5.47;;;2.30;;
42702;SDS011;28341;52.064;4.920;2023-04-03T08:31:58;4.63;;;1.95;;
42702;SDS011;28341;52.064;4.920;2023-04-03T08:34:02;11.30;;;1.98;;
42702;SDS011;28341;52.064;4.920;2023-04-03T08:36:08;4.38;;;1.73;;
42702;SDS011;28341;52.064;4.920;2023-04-03T08:38:22;4.95;;;1.88;;
42702;SDS011;28341;52.064;4.920;2023-04-03T08:40:27;6.43;;;2.30;;
42702;SDS011;28341;52.064;4.920;2023-04-03T08:42:36;3.85;;;1.67;;
42702;SDS011;28341;52.064;4.920;2023-04-03T08:44:51;5.88;;;1.90;;
42702;SDS011;28341;52.064;4.920;2023-04-03T08:47:09;3.92;;;1.42;;
42702;SDS011;28341;52.064;4.920;2023-04-03T08:49:22;5.07;;;1.83;;
42702;SDS011;28341;52.064;4.920;2023-04-03T08:51:31;3.60;;;1.67;;
42702;SDS011;28341;52.064;4.920;2023-04-03T08:53:36;5.00;;;1.48;;
42702;SDS011;28341;52.064;4.920;2023-04-03T08:55:45;5.85;;;1.70;;
42702;SDS011;28341;52.064;4.920;2023-04-03T08:57:53;4.57;;;1.35;;
42702;SDS011;28341;52.064;4.920;2023-04-03T09:00:05;4.00;;;1.10;;
42702;SDS011;28341;52.064;4.920;2023-04-03T09:02:25;4.78;;;1.20;;
42702;SDS011;28341;52.064;4.920;2023-04-03T09:04:34;6.97;;;1.30;;
42702;SDS011;28341;52.064;4.920;2023-04-03T09:06:39;2.85;;;1.05;;
42702;SDS011;28341;52.064;4.920;2023-04-03T09:08:47;1.98;;;0.90;;
42702;SDS011;28341;52.064;4.920;2023-04-03T09:11:03;3.28;;;1.60;;
42702;SDS011;28341;52.064;4.920;2023-04-03T09:13:13;4.30;;;1.27;;
42702;SDS011;28341;52.064;4.920;2023-04-03T09:15:28;2.88;;;1.20;;
42702;SDS011;28341;52.064;4.920;2023-04-03T09:17:40;3.80;;;1.15;;
42702;SDS011;28341;52.064;4.920;2023-04-03T09:19:50;2.40;;;0.90;;
42702;SDS011;28341;52.064;4.920;2023-04-03T09:22:07;2.92;;;1.10;;
42702;SDS011;28341;52.064;4.920;2023-04-03T09:24:17;4.93;;;1.08;;
42702;SDS011;28341;52.064;4.920;2023-04-03T09:26:23;5.60;;;1.25;;
42702;SDS011;28341;52.064;4.920;2023-04-03T09:28:29;2.20;;;0.90;;
42702;SDS011;28341;52.064;4.920;2023-04-03T09:30:35;2.20;;;0.88;;
42702;SDS011;28341;52.064;4.920;2023-04-03T09:32:44;2.08;;;1.00;;
42702;SDS011;28341;52.064;4.920;2023-04-03T09:34:50;3.13;;;1.13;;
42702;SDS011;28341;52.064;4.920;2023-04-03T09:36:56;2.53;;;1.10;;
42702;SDS011;28341;52.064;4.920;2023-04-03T09:39:07;5.85;;;1.40;;
42702;SDS011;28341;52.064;4.920;2023-04-03T09:41:16;5.50;;;1.90;;
42702;SDS011;28341;52.064;4.920;2023-04-03T09:43:23;2.58;;;1.00;;
42702;SDS011;28341;52.064;4.920;2023-04-03T09:45:32;3.03;;;0.90;;
42702;SDS011;28341;52.064;4.920;2023-04-03T09:47:37;3.72;;;1.25;;
42702;SDS011;28341;52.064;4.920;2023-04-03T09:49:44;3.38;;;0.95;;
42702;SDS011;28341;52.064;4.920;2023-04-03T09:51:49;2.55;;;1.05;;
42702;SDS011;28341;52.064;4.920;2023-04-03T09:53:54;5.45;;;1.15;;
42702;SDS011;28341;52.064;4.920;2023-04-03T09:56:00;3.00;;;1.15;;
42702;SDS011;28341;52.064;4.920;2023-04-03T09:58:20;1.95;;;1.00;;
42702;SDS011;28341;52.064;4.920;2023-04-03T10:00:30;2.72;;;0.95;;
42702;SDS011;28341;52.064;4.920;2023-04-03T10:02:39;2.95;;;1.33;;
42702;SDS011;28341;52.064;4.920;2023-04-03T10:04:46;2.58;;;0.90;;
42702;SDS011;28341;52.064;4.920;2023-04-03T10:06:51;1.70;;;0.90;;
42702;SDS011;28341;52.064;4.920;2023-04-03T10:08:58;3.70;;;1.05;;
42702;SDS011;28341;52.064;4.920;2023-04-03T10:11:05;3.90;;;0.90;;
42702;SDS011;28341;52.064;4.920;2023-04-03T10:13:16;4.35;;;0.93;;
42702;SDS011;28341;52.064;4.920;2023-04-03T10:15:22;2.65;;;1.20;;
42702;SDS011;28341;52.064;4.920;2023-04-03T10:17:33;2.47;;;0.82;;
42702;SDS011;28341;52.064;4.920;2023-04-03T10:19:51;1.10;;;0.60;;
42702;SDS011;28341;52.064;4.920;2023-04-03T10:21:58;2.45;;;0.70;;
42702;SDS011;28341;52.064;4.920;2023-04-03T10:24:08;2.08;;;0.90;;
42702;SDS011;28341;52.064;4.920;2023-04-03T10:26:17;2.95;;;0.95;;
42702;SDS011;28341;52.064;4.920;2023-04-03T10:28:34;1.75;;;0.77;;
42702;SDS011;28341;52.064;4.920;2023-04-03T10:30:47;3.28;;;0.80;;
42702;SDS011;28341;52.064;4.920;2023-04-03T10:32:58;3.97;;;1.00;;
42702;SDS011;28341;52.064;4.920;2023-04-03T10:35:19;5.05;;;1.10;;
42702;SDS011;28341;52.064;4.920;2023-04-03T10:37:35;2.15;;;0.85;;
42702;SDS011;28341;52.064;4.920;2023-04-03T10:39:56;2.45;;;0.85;;
42702;SDS011;28341;52.064;4.920;2023-04-03T10:42:07;3.40;;;1.02;;
42702;SDS011;28341;52.064;4.920;2023-04-03T10:44:18;1.65;;;0.70;;
42702;SDS011;28341;52.064;4.920;2023-04-03T10:46:32;1.88;;;0.60;;
42702;SDS011;28341;52.064;4.920;2023-04-03T10:48:48;2.80;;;0.82;;
42702;SDS011;28341;52.064;4.920;2023-04-03T10:51:05;2.40;;;0.55;;
42702;SDS011;28341;52.064;4.920;2023-04-03T10:53:20;1.55;;;0.40;;
42702;SDS011;28341;52.064;4.920;2023-04-03T10:55:34;0.90;;;0.60;;
42702;SDS011;28341;52.064;4.920;2023-04-03T10:57:41;1.38;;;0.47;;
42702;SDS011;28341;52.064;4.920;2023-04-03T10:59:46;1.10;;;0.60;;
42702;SDS011;28341;52.064;4.920;2023-04-03T11:01:54;1.42;;;0.50;;
42702;SDS011;28341;52.064;4.920;2023-04-03T11:04:02;1.77;;;0.40;;
42702;SDS011;28341;52.064;4.920;2023-04-03T11:06:12;2.33;;;0.63;;
42702;SDS011;28341;52.064;4.920;2023-04-03T11:08:21;0.80;;;0.50;;
42702;SDS011;28341;52.064;4.920;2023-04-03T11:10:33;0.70;;;0.37;;
42702;SDS011;28341;52.064;4.920;2023-04-03T11:12:43;1.25;;;0.40;;
42702;SDS011;28341;52.064;4.920;2023-04-03T11:14:51;0.82;;;0.50;;
42702;SDS011;28341;52.064;4.920;2023-04-03T11:17:01;1.70;;;0.43;;
42702;SDS011;28341;52.064;4.920;2023-04-03T11:19:14;1.48;;;0.50;;
42702;SDS011;28341;52.064;4.920;2023-04-03T11:21:27;2.08;;;0.70;;
42702;SDS011;28341;52.064;4.920;2023-04-03T11:23:36;1.15;;;0.40;;
42702;SDS011;28341;52.064;4.920;2023-04-03T11:25:42;1.98;;;0.70;;
42702;SDS011;28341;52.064;4.920;2023-04-03T11:27:48;2.65;;;0.88;;
42702;SDS011;28341;52.064;4.920;2023-04-03T11:29:58;1.25;;;0.65;;
42702;SDS011;28341;52.064;4.920;2023-04-03T11:32:09;1.42;;;0.60;;
42702;SDS011;28341;52.064;4.920;2023-04-03T11:34:30;0.98;;;0.63;;
42702;SDS011;28341;52.064;4.920;2023-04-03T11:36:44;1.85;;;0.70;;
42702;SDS011;28341;52.064;4.920;2023-04-03T11:38:51;1.58;;;0.60;;
42702;SDS011;28341;52.064;4.920;2023-04-03T11:40:58;0.70;;;0.45;;
42702;SDS011;28341;52.064;4.920;2023-04-03T11:43:04;2.08;;;0.65;;
42702;SDS011;28341;52.064;4.920;2023-04-03T11:45:29;2.83;;;0.63;;
42702;SDS011;28341;52.064;4.920;2023-04-03T11:47:44;1.38;;;0.60;;
42702;SDS011;28341;52.064;4.920;2023-04-03T11:49:50;1.13;;;0.60;;
42702;SDS011;28341;52.064;4.920;2023-04-03T11:52:11;1.48;;;0.50;;
42702;SDS011;28341;52.064;4.920;2023-04-03T11:56:49;1.55;;;0.80;;
42702;SDS011;28341;52.064;4.920;2023-04-03T12:01:43;2.65;;;0.77;;
42702;SDS011;28341;52.064;4.920;2023-04-03T12:09:15;2.85;;;1.00;;
42702;SDS011;28341;52.064;4.920;2023-04-03T12:11:42;5.20;;;1.02;;
42702;SDS011;28341;52.064;4.920;2023-04-03T12:14:01;3.38;;;0.60;;
42702;SDS011;28341;52.064;4.920;2023-04-03T12:16:10;3.03;;;0.85;;
42702;SDS011;28341;52.064;4.920;2023-04-03T12:18:40;3.35;;;1.13;;
42702;SDS011;28341;52.064;4.920;2023-04-03T12:20:53;3.60;;;1.17;;
42702;SDS011;28341;52.064;4.920;2023-04-03T12:23:08;1.75;;;0.80;;
42702;SDS011;28341;52.064;4.920;2023-04-03T12:25:46;3.47;;;0.93;;
42702;SDS011;28341;52.064;4.920;2023-04-03T12:27:53;1.65;;;0.85;;
42702;SDS011;28341;52.064;4.920;2023-04-03T12:30:05;2.25;;;0.90;;
42702;SDS011;28341;52.064;4.920;2023-04-03T12:32:22;2.53;;;1.02;;
42702;SDS011;28341;52.064;4.920;2023-04-03T12:34:44;1.92;;;0.90;;
42702;SDS011;28341;52.064;4.920;2023-04-03T12:37:00;2.92;;;0.90;;
42702;SDS011;28341;52.064;4.920;2023-04-03T12:39:12;2.78;;;0.90;;
42702;SDS011;28341;52.064;4.920;2023-04-03T12:41:30;1.95;;;0.82;;
42702;SDS011;28341;52.064;4.920;2023-04-03T12:43:43;5.65;;;1.20;;
42702;SDS011;28341;52.064;4.920;2023-04-03T12:46:03;1.58;;;0.70;;
42702;SDS011;28341;52.064;4.920;2023-04-03T12:48:16;2.55;;;0.90;;
42702;SDS011;28341;52.064;4.920;2023-04-03T12:50:27;3.15;;;1.00;;
42702;SDS011;28341;52.064;4.920;2023-04-03T12:52:35;3.00;;;0.80;;
42702;SDS011;28341;52.064;4.920;2023-04-03T12:54:43;3.65;;;1.05;;
42702;SDS011;28341;52.064;4.920;2023-04-03T12:56:52;2.22;;;0.73;;
42702;SDS011;28341;52.064;4.920;2023-04-03T12:59:14;1.83;;;0.82;;
42702;SDS011;28341;52.064;4.920;2023-04-03T13:01:21;3.78;;;0.88;;